Time;durP1;ratioP1;P1;durP2;ratioP2;P2;SDS_P1;SDS_P2;PMS_P1;PMS_P2;Temp;Humidity;BMP_temperature;BMP_pressure;BME280_temperature;BME280_humidity;BME280_pressure;Samples;Min_cycle;Max_cycle;Signal;HPM_P1;HPM_P2
2022/07/19 00:01:48;;;;;;;0.80;0.60;;;20.90;76.50;;;;;;5076105;28;20448;-82
2022/07/19 00:04:15;;;;;;;1.00;0.80;;;20.90;76.30;;;;;;5076895;28;20448;-82
2022/07/19 00:06:42;;;;;;;1.30;0.80;;;20.90;76.50;;;;;;5076007;28;20473;-82
2022/07/19 00:09:09;;;;;;;3.03;1.10;;;20.80;75.20;;;;;;5075592;28;20478;-82
2022/07/19 00:11:37;;;;;;;0.87;0.87;;;20.80;74.40;;;;;;5075813;28;20829;-82
2022/07/19 00:14:04;;;;;;;0.57;0.57;;;20.80;75.70;;;;;;5075491;28;20452;-82
2022/07/19 00:16:30;;;;;;;0.60;0.60;;;20.80;75.60;;;;;;5075534;28;20459;-82
2022/07/19 00:18:57;;;;;;;1.47;0.67;;;20.70;76.70;;;;;;5075730;28;20476;-82
2022/07/19 00:21:24;;;;;;;0.73;0.73;;;20.70;76.10;;;;;;5075708;28;20495;-82
2022/07/19 00:23:50;;;;;;;1.13;0.70;;;20.60;76.70;;;;;;5075711;28;20475;-82
2022/07/19 00:26:17;;;;;;;0.80;0.60;;;20.60;76.60;;;;;;5075655;28;20451;-82
2022/07/19 00:28:45;;;;;;;2.10;1.17;;;20.50;77.50;;;;;;5075526;28;20464;-82
2022/07/19 00:31:12;;;;;;;0.53;0.53;;;20.50;77.60;;;;;;5075570;28;20455;-82
2022/07/19 00:33:39;;;;;;;0.83;0.80;;;20.40;78.10;;;;;;5075540;28;20468;-82
2022/07/19 00:36:05;;;;;;;0.90;0.90;;;20.40;77.90;;;;;;5075401;28;20822;-82
2022/07/19 00:38:32;;;;;;;0.90;0.83;;;20.40;77.60;;;;;;5074985;28;20480;-82
2022/07/19 00:41:02;;;;;;;0.93;0.83;;;20.30;78.00;;;;;;5075405;28;20441;-82
2022/07/19 00:43:29;;;;;;;1.03;0.93;;;20.30;77.90;;;;;;5075346;28;20448;-82
2022/07/19 00:45:57;;;;;;;0.80;0.67;;;20.30;77.60;;;;;;5075010;28;20448;-82
2022/07/19 00:48:24;;;;;;;1.13;0.77;;;20.30;77.50;;;;;;5075192;28;20460;-82
2022/07/19 00:50:51;;;;;;;0.93;0.73;;;20.20;76.70;;;;;;5075204;28;20440;-82
2022/07/19 00:53:19;;;;;;;0.80;0.80;;;20.30;77.60;;;;;;5075137;28;20456;-82
2022/07/19 00:55:46;;;;;;;0.70;0.60;;;20.20;77.20;;;;;;5074683;28;20848;-82
2022/07/19 00:58:14;;;;;;;0.57;0.57;;;20.20;75.90;;;;;;5074958;28;20469;-82
2022/07/19 01:00:41;;;;;;;0.60;0.60;;;20.20;77.40;;;;;;5074726;28;21040;-82
2022/07/19 01:03:10;;;;;;;0.80;0.73;;;20.10;76.70;;;;;;5074955;28;20444;-82
2022/07/19 01:05:36;;;;;;;1.20;0.73;;;20.10;76.80;;;;;;5074930;28;20440;-82
2022/07/19 01:08:03;;;;;;;1.17;1.03;;;20.10;76.20;;;;;;5074261;28;20460;-82
2022/07/19 01:10:30;;;;;;;1.13;0.70;;;20.00;77.90;;;;;;5074210;28;20444;-82
2022/07/19 01:12:57;;;;;;;1.13;0.60;;;20.00;78.60;;;;;;5074736;28;20445;-82
2022/07/19 01:15:27;;;;;;;1.40;0.73;;;20.00;79.00;;;;;;5074292;28;21011;-82
2022/07/19 01:17:54;;;;;;;2.17;0.80;;;20.00;79.00;;;;;;5074300;28;20473;-82
2022/07/19 01:20:24;;;;;;;0.80;0.73;;;19.90;78.50;;;;;;5074618;28;20449;-82
2022/07/19 01:22:52;;;;;;;0.63;0.63;;;19.80;78.10;;;;;;5074515;28;20448;-82
2022/07/19 01:25:19;;;;;;;2.80;0.70;;;19.80;79.20;;;;;;5074475;28;20440;-82
2022/07/19 01:27:48;;;;;;;0.80;0.60;;;19.70;79.30;;;;;;5074339;28;20460;-82
2022/07/19 01:30:18;;;;;;;1.67;0.80;;;19.70;79.00;;;;;;5074374;28;20459;-82
2022/07/19 01:32:45;;;;;;;1.63;0.70;;;19.60;77.80;;;;;;5074003;28;20825;-82
2022/07/19 01:35:13;;;;;;;0.50;0.50;;;19.60;78.00;;;;;;5073897;28;20905;-82
2022/07/19 01:37:40;;;;;;;1.07;0.70;;;19.60;78.20;;;;;;5073831;28;20496;-82
2022/07/19 01:40:12;;;;;;;0.87;0.80;;;19.60;78.10;;;;;;5073899;28;20444;-82
2022/07/19 01:42:39;;;;;;;2.30;0.80;;;19.50;77.60;;;;;;5073869;28;20429;-82
2022/07/19 01:45:08;;;;;;;1.00;0.70;;;19.50;77.80;;;;;;5074091;28;20437;-82
2022/07/19 01:47:35;;;;;;;1.03;0.93;;;19.50;78.00;;;;;;5073649;28;20938;-82
2022/07/19 01:50:05;;;;;;;0.73;0.73;;;19.40;78.50;;;;;;5074008;28;20449;-82
2022/07/19 01:52:32;;;;;;;0.70;0.70;;;19.40;78.60;;;;;;5073986;28;20433;-82
2022/07/19 01:54:59;;;;;;;1.30;0.90;;;19.40;78.80;;;;;;5073890;28;20488;-82
2022/07/19 01:57:28;;;;;;;0.93;0.70;;;19.30;79.00;;;;;;5073844;28;20459;-81
2022/07/19 01:59:55;;;;;;;0.60;0.60;;;19.40;80.10;;;;;;5073496;28;20875;-82
2022/07/19 02:02:22;;;;;;;0.63;0.63;;;19.30;79.90;;;;;;5073807;28;20449;-82
2022/07/19 02:04:48;;;;;;;0.90;0.90;;;19.40;79.60;;;;;;5073767;28;20445;-82
2022/07/19 02:07:15;;;;;;;1.13;0.80;;;19.40;78.60;;;;;;5073725;28;20441;-82
2022/07/19 02:09:42;;;;;;;2.70;1.00;;;19.50;78.90;;;;;;5073382;28;21115;-82
2022/07/19 02:12:09;;;;;;;0.70;0.70;;;19.50;79.30;;;;;;5073346;28;20936;-82
2022/07/19 02:14:37;;;;;;;1.53;1.20;;;19.50;79.40;;;;;;5073557;28;20456;-82
2022/07/19 02:17:04;;;;;;;0.70;0.63;;;19.50;79.50;;;;;;5073601;28;20441;-82
2022/07/19 02:19:30;;;;;;;0.97;0.70;;;19.50;78.70;;;;;;5073218;28;20476;-82
2022/07/19 02:21:57;;;;;;;0.90;0.73;;;19.50;79.90;;;;;;5073491;28;20449;-82
2022/07/19 02:24:24;;;;;;;0.70;0.70;;;19.40;79.60;;;;;;5073498;28;20510;-82
2022/07/19 02:26:51;;;;;;;0.70;0.70;;;19.40;80.80;;;;;;5073453;28;20456;-82
2022/07/19 02:29:17;;;;;;;0.70;0.70;;;19.30;80.20;;;;;;5073051;28;21006;-82
2022/07/19 02:31:45;;;;;;;0.93;0.80;;;19.30;81.10;;;;;;5073435;28;20455;-82
2022/07/19 02:34:12;;;;;;;1.13;1.13;;;19.30;80.60;;;;;;5073403;28;20461;-82
2022/07/19 02:36:39;;;;;;;1.00;0.80;;;19.20;80.20;;;;;;5073228;28;20484;-82
2022/07/19 02:39:05;;;;;;;1.33;0.93;;;19.20;80.00;;;;;;5072856;28;20481;-82
2022/07/19 02:41:32;;;;;;;2.50;0.60;;;19.10;80.60;;;;;;5073338;28;20445;-82
2022/07/19 02:43:59;;;;;;;0.60;0.60;;;19.10;81.50;;;;;;5073000;28;20544;-82
2022/07/19 02:46:26;;;;;;;0.70;0.70;;;19.10;81.60;;;;;;5073323;28;20441;-82
2022/07/19 02:48:54;;;;;;;0.87;0.70;;;19.00;81.80;;;;;;5072887;28;20996;-82
2022/07/19 02:51:20;;;;;;;0.77;0.70;;;19.00;81.80;;;;;;5073259;28;20449;-82
2022/07/19 02:53:47;;;;;;;0.90;0.83;;;19.00;82.70;;;;;;5073264;28;20448;-82
2022/07/19 02:56:14;;;;;;;0.90;0.70;;;18.90;81.30;;;;;;5072793;28;21029;-82
2022/07/19 02:58:41;;;;;;;0.90;0.57;;;18.90;81.40;;;;;;5073117;28;20471;-82
2022/07/19 03:01:08;;;;;;;0.70;0.70;;;18.90;81.00;;;;;;5073182;28;20467;-82
2022/07/19 03:03:46;;;;;;;1.00;1.00;;;18.80;81.20;;;;;;5073130;28;20476;-82
2022/07/19 03:06:17;;;;;;;0.70;0.70;;;18.80;81.00;;;;;;5073138;28;20542;-82
2022/07/19 03:08:44;;;;;;;0.70;0.60;;;18.80;80.90;;;;;;5073062;28;20968;-82
2022/07/19 03:11:11;;;;;;;0.50;0.50;;;18.80;80.70;;;;;;5072720;28;20964;-82
2022/07/19 03:13:38;;;;;;;1.10;0.87;;;18.80;80.50;;;;;;5073045;28;20452;-82
2022/07/19 03:16:05;;;;;;;0.90;0.90;;;18.80;81.50;;;;;;5072916;28;20487;-82
2022/07/19 03:18:32;;;;;;;1.00;0.70;;;18.80;81.40;;;;;;5072685;28;20464;-82
2022/07/19 03:20:59;;;;;;;1.83;1.13;;;18.80;81.00;;;;;;5072968;28;20564;-82
2022/07/19 03:23:28;;;;;;;1.17;0.80;;;18.80;81.10;;;;;;5072932;28;20449;-82
2022/07/19 03:25:55;;;;;;;0.60;0.60;;;18.80;81.30;;;;;;5072906;28;20448;-82
2022/07/19 03:28:21;;;;;;;0.60;0.60;;;18.80;81.90;;;;;;5072542;28;20461;-82
2022/07/19 03:30:48;;;;;;;0.80;0.67;;;18.70;82.50;;;;;;5072844;28;20460;-82
2022/07/19 03:33:15;;;;;;;0.80;0.77;;;18.70;82.80;;;;;;5075139;28;20966;-82
2022/07/19 03:35:43;;;;;;;7.13;1.17;;;18.70;83.30;;;;;;5076210;28;20538;-82
2022/07/19 03:38:10;;;;;;;0.73;0.70;;;18.80;83.80;;;;;;5075974;28;20484;-82
2022/07/19 03:40:38;;;;;;;3.03;0.80;;;18.70;84.10;;;;;;5076503;28;20444;-83
2022/07/19 03:43:05;;;;;;;1.27;0.60;;;18.70;84.00;;;;;;5076427;28;20445;-82
2022/07/19 03:45:32;;;;;;;0.73;0.70;;;18.70;84.10;;;;;;5076406;28;20452;-83
2022/07/19 03:48:00;;;;;;;0.93;0.57;;;18.70;83.90;;;;;;5076306;28;20467;-83
2022/07/19 03:50:27;;;;;;;1.77;0.70;;;18.70;85.00;;;;;;5076285;28;20450;-83
2022/07/19 03:52:53;;;;;;;0.80;0.80;;;18.70;84.80;;;;;;5076259;28;20445;-82
2022/07/19 03:55:20;;;;;;;0.57;0.57;;;18.60;85.20;;;;;;5075824;28;20940;-83
2022/07/19 03:57:48;;;;;;;1.27;0.70;;;18.60;85.10;;;;;;5076093;28;20441;-82
2022/07/19 04:00:15;;;;;;;0.90;0.60;;;18.60;85.30;;;;;;5076135;28;20460;-82
2022/07/19 04:02:42;;;;;;;2.57;1.13;;;18.60;85.90;;;;;;5076075;28;20449;-83
2022/07/19 04:05:09;;;;;;;0.63;0.63;;;18.60;85.60;;;;;;5075716;28;20967;-82
2022/07/19 04:07:36;;;;;;;4.73;0.80;;;18.60;86.10;;;;;;5075940;28;20460;-82
2022/07/19 04:10:03;;;;;;;0.83;0.83;;;18.60;86.70;;;;;;5075683;28;20453;-82
2022/07/19 04:12:30;;;;;;;2.70;0.70;;;18.60;87.30;;;;;;5075892;28;20457;-83
2022/07/19 04:14:58;;;;;;;0.53;0.50;;;18.60;87.20;;;;;;5075881;28;20476;-82
2022/07/19 04:17:25;;;;;;;1.80;0.90;;;18.60;87.30;;;;;;5075466;28;21002;-82
2022/07/19 04:19:51;;;;;;;0.60;0.60;;;18.60;87.10;;;;;;5075692;28;20476;-82
2022/07/19 04:22:18;;;;;;;1.60;0.80;;;18.50;86.70;;;;;;5075485;28;20959;-83
2022/07/19 04:24:45;;;;;;;0.80;0.80;;;18.50;87.80;;;;;;5075424;28;20445;-83
2022/07/19 04:27:12;;;;;;;0.83;0.83;;;18.50;88.30;;;;;;5075699;28;20445;-83
2022/07/19 04:29:38;;;;;;;1.13;1.03;;;18.60;89.10;;;;;;5075276;28;20461;-83
2022/07/19 04:32:07;;;;;;;0.77;0.60;;;18.60;89.80;;;;;;5075613;28;20449;-83
2022/07/19 04:34:34;;;;;;;1.37;0.83;;;18.60;89.00;;;;;;5075564;28;20514;-83
2022/07/19 04:37:01;;;;;;;1.90;0.83;;;18.60;89.10;;;;;;5075207;28;20481;-83
2022/07/19 04:39:27;;;;;;;0.80;0.80;;;18.60;89.50;;;;;;5075436;28;20465;-83
2022/07/19 04:41:54;;;;;;;0.60;0.60;;;18.60;89.80;;;;;;5075372;28;20453;-83
2022/07/19 04:44:21;;;;;;;1.00;0.90;;;18.70;89.60;;;;;;5075064;28;20468;-83
2022/07/19 04:46:47;;;;;;;0.83;0.83;;;18.70;90.20;;;;;;5075298;28;20437;-83
2022/07/19 04:49:15;;;;;;;1.90;0.63;;;18.70;90.10;;;;;;5075187;28;20473;-83
2022/07/19 04:51:42;;;;;;;1.33;0.80;;;18.70;90.40;;;;;;5075169;28;20456;-83
2022/07/19 04:54:09;;;;;;;0.83;0.70;;;18.80;90.70;;;;;;5074844;28;20948;-83
2022/07/19 04:56:35;;;;;;;1.83;0.97;;;18.80;91.00;;;;;;5074977;28;20480;-83
2022/07/19 04:59:02;;;;;;;0.70;0.70;;;18.80;91.10;;;;;;5074698;28;20944;-83
2022/07/19 05:01:30;;;;;;;0.90;0.70;;;18.90;91.10;;;;;;5075019;28;20448;-83
2022/07/19 05:03:57;;;;;;;0.70;0.70;;;18.90;91.30;;;;;;5074629;28;20451;-84
2022/07/19 05:06:25;;;;;;;1.10;0.77;;;18.90;91.60;;;;;;5074888;28;20445;-83
2022/07/19 05:08:52;;;;;;;2.20;1.03;;;19.00;92.00;;;;;;5074730;28;20526;-83
2022/07/19 05:11:19;;;;;;;1.20;1.10;;;19.00;92.40;;;;;;5074487;28;20548;-83
2022/07/19 05:13:46;;;;;;;1.43;0.97;;;19.00;92.40;;;;;;5074420;28;20936;-83
2022/07/19 05:16:13;;;;;;;0.70;0.70;;;19.10;92.50;;;;;;5074601;28;20480;-83
2022/07/19 05:18:40;;;;;;;1.20;1.07;;;19.20;92.70;;;;;;5074241;28;20823;-83
2022/07/19 05:21:07;;;;;;;1.60;0.90;;;19.20;93.00;;;;;;5074571;28;20449;-83
2022/07/19 05:23:35;;;;;;;0.80;0.80;;;19.30;92.90;;;;;;5074560;28;20534;-83
2022/07/19 05:26:01;;;;;;;1.57;0.93;;;19.40;92.90;;;;;;5074497;28;20433;-84
2022/07/19 05:28:28;;;;;;;0.80;0.70;;;19.50;93.10;;;;;;5074361;28;20498;-83
2022/07/19 05:30:55;;;;;;;0.90;0.90;;;19.50;93.10;;;;;;5074129;28;20428;-83
2022/07/19 05:33:21;;;;;;;0.87;0.87;;;19.60;93.10;;;;;;5074331;28;20445;-83
2022/07/19 05:35:48;;;;;;;1.73;0.80;;;19.70;93.20;;;;;;5074262;28;20440;-83
2022/07/19 05:38:15;;;;;;;1.07;1.00;;;19.70;92.70;;;;;;5073901;28;20984;-83
2022/07/19 05:40:43;;;;;;;1.33;1.10;;;19.80;92.00;;;;;;5074185;28;20444;-83
2022/07/19 05:43:10;;;;;;;1.10;1.10;;;19.90;91.30;;;;;;5074194;28;20444;-83
2022/07/19 05:45:36;;;;;;;0.87;0.87;;;20.00;91.50;;;;;;5073800;28;20444;-83
2022/07/19 05:48:03;;;;;;;2.37;1.00;;;20.10;91.80;;;;;;5074029;28;20471;-83
2022/07/19 05:50:30;;;;;;;2.53;1.20;;;20.20;91.40;;;;;;5074014;28;20445;-83
2022/07/19 05:52:57;;;;;;;1.90;1.30;;;20.30;91.30;;;;;;5073996;28;20451;-83
2022/07/19 05:55:24;;;;;;;2.70;1.40;;;20.40;91.60;;;;;;5073306;28;20457;-83
2022/07/19 05:57:52;;;;;;;1.80;1.10;;;20.40;92.00;;;;;;5073759;28;20563;-83
2022/07/19 06:00:18;;;;;;;2.50;1.33;;;20.60;92.20;;;;;;5073663;28;20441;-83
2022/07/19 06:02:45;;;;;;;3.13;1.20;;;20.70;91.80;;;;;;5073817;28;20459;-83
2022/07/19 06:05:12;;;;;;;0.67;0.67;;;20.80;91.10;;;;;;5073801;28;20779;-83
2022/07/19 06:07:38;;;;;;;0.93;0.80;;;21.00;91.00;;;;;;5073383;28;20924;-83
2022/07/19 06:10:06;;;;;;;1.37;1.27;;;21.10;90.70;;;;;;5073764;28;20476;-83
2022/07/19 06:12:33;;;;;;;1.50;1.40;;;21.30;90.80;;;;;;5073807;28;20439;-83
2022/07/19 06:15:01;;;;;;;1.37;0.90;;;21.50;90.00;;;;;;5073693;28;20456;-83
2022/07/19 06:17:28;;;;;;;1.37;1.10;;;21.70;89.70;;;;;;5073263;28;20990;-83
2022/07/19 06:19:55;;;;;;;0.70;0.70;;;21.90;89.10;;;;;;5073652;28;20448;-83
2022/07/19 06:22:21;;;;;;;0.77;0.70;;;22.20;79.80;;;;;;5073692;28;20452;-83
2022/07/19 06:24:48;;;;;;;1.00;1.00;;;22.60;80.00;;;;;;5073230;28;20451;-83
2022/07/19 06:27:15;;;;;;;0.73;0.73;;;22.90;77.60;;;;;;5074153;28;20479;-83
2022/07/19 06:29:41;;;;;;;0.80;0.67;;;23.30;74.00;;;;;;5073152;28;20716;-83
2022/07/19 06:32:10;;;;;;;0.93;0.67;;;23.70;71.60;;;;;;5073487;28;20455;-83
2022/07/19 06:34:36;;;;;;;2.03;0.90;;;24.00;70.00;;;;;;5073456;28;20202;-83
2022/07/19 06:37:03;;;;;;;0.70;0.70;;;24.30;68.90;;;;;;5073106;28;20240;-82
2022/07/19 06:39:30;;;;;;;0.47;0.43;;;24.60;67.70;;;;;;5073367;28;20225;-83
2022/07/19 06:41:56;;;;;;;1.42;1.10;;;24.90;68.00;;;;;;5073362;28;20215;-83
2022/07/19 06:44:23;;;;;;;1.55;0.57;;;25.10;67.10;;;;;;5073422;28;20205;-83
2022/07/19 06:46:50;;;;;;;1.25;1.13;;;25.30;65.50;;;;;;5073318;28;20201;-83
2022/07/19 06:49:18;;;;;;;0.75;0.75;;;25.60;63.60;;;;;;5073201;28;20233;-83
2022/07/19 06:51:45;;;;;;;0.80;0.80;;;25.80;63.40;;;;;;5073277;28;20202;-83
2022/07/19 06:54:11;;;;;;;1.35;0.90;;;26.00;64.30;;;;;;5073266;28;20205;-83
2022/07/19 06:56:38;;;;;;;0.85;0.85;;;26.10;63.60;;;;;;5073942;28;20229;-83
2022/07/19 06:59:05;;;;;;;3.00;1.27;;;26.20;63.70;;;;;;5073144;28;20229;-83
2022/07/19 07:01:31;;;;;;;0.85;0.75;;;26.30;63.70;;;;;;5073162;28;20214;-83
2022/07/19 07:03:58;;;;;;;0.80;0.80;;;26.50;64.50;;;;;;5073156;28;20281;-83
2022/07/19 07:06:26;;;;;;;0.80;0.80;;;26.50;63.60;;;;;;5074539;28;20201;-83
2022/07/19 07:08:53;;;;;;;0.95;0.90;;;26.60;63.70;;;;;;5077192;28;20221;-83
2022/07/19 07:11:20;;;;;;;1.05;0.93;;;26.90;62.10;;;;;;5076836;28;20595;-83
2022/07/19 07:13:46;;;;;;;0.90;0.80;;;27.10;63.10;;;;;;5077068;28;20273;-83
2022/07/19 07:16:13;;;;;;;0.70;0.70;;;27.10;62.40;;;;;;5076603;28;20574;-83
2022/07/19 07:18:40;;;;;;;1.30;0.90;;;27.10;61.60;;;;;;5076905;28;20222;-83
2022/07/19 07:21:06;;;;;;;1.77;0.95;;;27.20;60.60;;;;;;5076893;28;20202;-83
2022/07/19 07:23:34;;;;;;;0.93;0.93;;;27.20;59.80;;;;;;5076530;28;20207;-83
2022/07/19 07:26:01;;;;;;;1.15;0.80;;;27.40;59.10;;;;;;5076852;28;20206;-82
2022/07/19 07:28:28;;;;;;;1.20;0.90;;;27.50;57.40;;;;;;5076786;28;20218;-83
2022/07/19 07:30:55;;;;;;;0.90;0.90;;;27.60;57.60;;;;;;5076385;28;20669;-83
2022/07/19 07:33:22;;;;;;;0.70;0.70;;;27.70;57.70;;;;;;5076677;28;20198;-83
2022/07/19 07:35:48;;;;;;;1.00;0.93;;;27.90;58.50;;;;;;5076645;28;20186;-83
2022/07/19 07:38:15;;;;;;;0.80;0.80;;;27.90;57.00;;;;;;5076037;28;20237;-83
2022/07/19 07:40:43;;;;;;;0.60;0.60;;;27.90;56.80;;;;;;5076489;28;20206;-83
2022/07/19 07:43:10;;;;;;;1.00;0.80;;;28.10;57.50;;;;;;5076066;28;20202;-83
2022/07/19 07:45:37;;;;;;;0.95;0.90;;;28.20;56.50;;;;;;5076353;28;20217;-83
2022/07/19 07:48:04;;;;;;;0.88;0.88;;;28.50;56.60;;;;;;5076314;28;20228;-84
2022/07/19 07:50:30;;;;;;;1.20;0.80;;;28.70;56.80;;;;;;5076353;28;20210;-83
2022/07/19 07:52:57;;;;;;;0.88;0.88;;;29.00;56.40;;;;;;5076267;28;20209;-83
2022/07/19 07:55:24;;;;;;;0.90;0.90;;;29.30;56.50;;;;;;5076296;28;20221;-83
2022/07/19 07:57:52;;;;;;;0.80;0.80;;;29.60;55.50;;;;;;5076054;28;20226;-83
2022/07/19 08:00:19;;;;;;;0.80;0.80;;;29.90;53.90;;;;;;5076208;28;20211;-83
2022/07/19 08:02:48;;;;;;;1.02;0.98;;;30.20;54.30;;;;;;5076153;28;20201;-83
2022/07/19 08:05:15;;;;;;;0.70;0.70;;;30.50;53.30;;;;;;5076758;28;20202;-83
2022/07/19 08:07:42;;;;;;;1.10;0.90;;;30.90;52.10;;;;;;5075953;28;20198;-83
2022/07/19 08:10:10;;;;;;;0.70;0.70;;;31.30;52.10;;;;;;5076066;28;20208;-83
2022/07/19 08:12:37;;;;;;;0.73;0.73;;;31.50;51.20;;;;;;5076007;28;20201;-84
2022/07/19 08:15:07;;;;;;;0.82;0.82;;;31.60;51.40;;;;;;5075665;28;20660;-84
2022/07/19 08:17:34;;;;;;;0.68;0.68;;;31.80;50.60;;;;;;5075106;28;20206;-84
2022/07/19 08:20:01;;;;;;;0.60;0.60;;;31.70;49.80;;;;;;5075836;28;20223;-86
2022/07/19 08:22:29;;;;;;;0.70;0.70;;;31.60;49.20;;;;;;5075773;28;20238;-84
2022/07/19 08:24:55;;;;;;;0.80;0.80;;;31.40;49.30;;;;;;5075744;28;20300;-84
2022/07/19 08:27:22;;;;;;;1.02;0.93;;;31.30;49.50;;;;;;5075656;28;20200;-84
2022/07/19 08:29:49;;;;;;;0.73;0.70;;;31.30;48.50;;;;;;5075584;28;20236;-83
2022/07/19 08:32:17;;;;;;;1.83;1.00;;;31.10;49.20;;;;;;5075384;28;20203;-83
2022/07/19 08:34:44;;;;;;;1.25;1.15;;;31.10;49.60;;;;;;5075562;28;20203;-80
2022/07/19 08:37:11;;;;;;;0.80;0.80;;;31.30;49.30;;;;;;5075163;28;20252;-79
2022/07/19 08:39:37;;;;;;;1.00;0.90;;;31.20;49.50;;;;;;5075441;28;20235;-80
2022/07/19 08:42:04;;;;;;;0.80;0.80;;;31.30;48.90;;;;;;5075399;28;20205;-79
2022/07/19 08:44:32;;;;;;;0.77;0.77;;;31.30;47.90;;;;;;5075260;28;20206;-80
2022/07/19 08:47:01;;;;;;;0.75;0.75;;;31.20;47.40;;;;;;5075060;28;20566;-80
2022/07/19 08:49:29;;;;;;;0.77;0.77;;;31.20;49.00;;;;;;5075223;28;20227;-80
2022/07/19 08:51:56;;;;;;;1.45;0.90;;;31.50;47.70;;;;;;5075239;28;20200;-79
2022/07/19 08:54:22;;;;;;;1.50;1.10;;;31.60;47.80;;;;;;5074864;28;20199;-80
2022/07/19 08:59:33;;;;;;;0.75;0.60;;;32.00;46.80;;;;;;5074805;28;20225;-79
2022/07/19 09:02:00;;;;;;;0.68;0.68;;;32.00;46.90;;;;;;5075019;28;20209;-80
2022/07/19 09:04:30;;;;;;;0.68;0.68;;;32.00;45.90;;;;;;5075010;28;20190;-80
2022/07/19 09:06:58;;;;;;;0.65;0.65;;;32.10;45.80;;;;;;5074892;28;20201;-80
2022/07/19 09:09:26;;;;;;;0.68;0.68;;;32.20;45.30;;;;;;5074856;28;20570;-80
2022/07/19 09:11:54;;;;;;;0.73;0.73;;;32.30;46.60;;;;;;5074827;28;20206;-80
2022/07/19 09:14:24;;;;;;;0.70;0.70;;;32.40;44.90;;;;;;5074782;28;20207;-79
2022/07/19 09:16:53;;;;;;;2.15;0.70;;;32.30;45.00;;;;;;5074606;28;20660;-81
2022/07/19 09:19:21;;;;;;;0.80;0.80;;;32.10;45.40;;;;;;5074591;28;20258;-80
2022/07/19 09:21:57;;;;;;;2.72;0.90;;;32.00;45.30;;;;;;5074625;28;20219;-79
2022/07/19 09:24:25;;;;;;;0.70;0.70;;;31.90;45.90;;;;;;5074307;28;20188;-79
2022/07/19 09:26:56;;;;;;;0.60;0.60;;;32.00;46.20;;;;;;5074504;28;20212;-79
2022/07/19 09:29:23;;;;;;;0.95;0.80;;;32.10;45.80;;;;;;5074441;28;20228;-83
2022/07/19 09:32:00;;;;;;;0.88;0.88;;;32.30;45.90;;;;;;5073883;28;20204;-83
2022/07/19 09:34:28;;;;;;;0.70;0.70;;;32.30;45.50;;;;;;5074348;28;20203;-79
2022/07/19 09:37:13;;;;;;;1.10;0.70;;;32.40;45.20;;;;;;5073999;28;20200;-80
2022/07/19 09:39:41;;;;;;;0.90;0.70;;;32.40;45.20;;;;;;5073927;28;20227;-81
2022/07/19 09:42:08;;;;;;;1.15;0.90;;;32.30;45.00;;;;;;5074166;28;20264;-80
2022/07/19 09:44:35;;;;;;;0.70;0.70;;;32.20;46.00;;;;;;5074187;28;20214;-81
2022/07/19 09:47:02;;;;;;;0.75;0.75;;;32.30;44.70;;;;;;5074160;28;20207;-80
2022/07/19 09:49:29;;;;;;;0.60;0.60;;;32.30;44.80;;;;;;5073686;28;20722;-80
2022/07/19 09:51:56;;;;;;;0.70;0.70;;;32.40;44.90;;;;;;5074029;28;20225;-80
2022/07/19 09:54:29;;;;;;;1.13;0.70;;;32.70;44.20;;;;;;5074012;28;20242;-84
2022/07/19 09:56:57;;;;;;;0.70;0.70;;;32.80;43.50;;;;;;5074020;28;20188;-85
2022/07/19 09:59:26;;;;;;;0.70;0.70;;;32.90;43.50;;;;;;5073838;28;20228;-84
2022/07/19 10:01:54;;;;;;;2.08;1.00;;;32.90;44.80;;;;;;5073582;28;20293;-85
2022/07/19 10:04:23;;;;;;;0.80;0.80;;;32.70;44.10;;;;;;5073842;28;20206;-84
2022/07/19 10:06:51;;;;;;;0.73;0.73;;;32.60;44.90;;;;;;5073587;28;20685;-84
2022/07/19 10:09:19;;;;;;;1.27;1.00;;;32.50;44.10;;;;;;5073733;28;20222;-84
2022/07/19 10:11:48;;;;;;;0.90;0.90;;;32.40;44.70;;;;;;5073709;28;20205;-84
2022/07/19 10:14:15;;;;;;;0.65;0.65;;;32.40;45.00;;;;;;5073750;28;20214;-84
2022/07/19 10:16:57;;;;;;;0.65;0.65;;;32.40;44.70;;;;;;5073376;28;20612;-83
2022/07/19 10:19:31;;;;;;;2.05;0.80;;;32.50;45.30;;;;;;5073749;28;20231;-84
2022/07/19 10:21:58;;;;;;;0.93;0.80;;;32.50;44.40;;;;;;5073696;28;20190;-85
2022/07/19 10:24:46;;;;;;;0.88;0.88;;;32.60;44.40;;;;;;5073564;28;20557;-89
2022/07/19 10:27:16;;;;;;;1.65;1.23;;;32.50;43.90;;;;;;5073301;28;20677;-85
2022/07/19 10:29:42;;;;;;;0.77;0.77;;;32.40;44.10;;;;;;5073225;28;20225;-84
2022/07/19 10:32:11;;;;;;;0.70;0.70;;;32.40;44.00;;;;;;5073480;28;20207;-80
2022/07/19 10:34:39;;;;;;;0.68;0.68;;;32.40;44.50;;;;;;5073168;28;20674;-81
2022/07/19 10:37:05;;;;;;;0.80;0.80;;;32.50;43.30;;;;;;5073209;28;20215;-81
2022/07/19 10:39:34;;;;;;;0.75;0.75;;;32.60;43.60;;;;;;5072989;28;20606;-81
2022/07/19 10:42:23;;;;;;;0.80;0.80;;;32.60;43.10;;;;;;5073037;28;20202;-82
2022/07/19 10:45:11;;;;;;;1.13;1.05;;;32.60;43.30;;;;;;5073402;28;20194;-85
2022/07/19 10:48:13;;;;;;;1.20;1.02;;;32.60;44.40;;;;;;5074246;28;20252;-86
2022/07/19 10:51:05;;;;;;;0.70;0.70;;;32.80;44.40;;;;;;5073474;28;20195;-85
2022/07/19 10:54:05;;;;;;;2.70;1.05;;;32.90;43.20;;;;;;5074004;28;20194;-90
2022/07/19 10:56:38;;;;;;;1.08;0.68;;;33.00;41.20;;;;;;5068833;28;20239;-85
2022/07/19 10:59:08;;;;;;;0.70;0.70;;;33.00;42.70;;;;;;5072903;28;20734;-86
2022/07/19 11:01:37;;;;;;;0.70;0.70;;;33.10;41.80;;;;;;5072878;28;20559;-86
2022/07/19 11:04:26;;;;;;;0.98;0.80;;;33.20;41.80;;;;;;5073623;28;20200;-88
2022/07/19 11:07:14;;;;;;;0.77;0.70;;;33.40;40.80;;;;;;5065191;28;20592;-86
2022/07/19 11:09:46;;;;;;;1.25;0.80;;;34.00;40.30;;;;;;5073111;28;20277;-86
2022/07/19 11:12:31;;;;;;;1.05;0.75;;;34.60;39.50;;;;;;5073293;28;20212;-86
2022/07/19 11:15:01;;;;;;;0.70;0.70;;;34.80;38.70;;;;;;5072887;28;20658;-86
2022/07/19 11:17:28;;;;;;;0.70;0.70;;;34.90;38.80;;;;;;5073324;28;20188;-85
2022/07/19 11:19:59;;;;;;;0.90;0.90;;;34.60;38.30;;;;;;5072678;28;20225;-86
2022/07/19 11:22:26;;;;;;;0.82;0.82;;;34.20;39.30;;;;;;5073134;28;20205;-88
2022/07/19 11:24:52;;;;;;;1.60;0.70;;;34.00;39.70;;;;;;5073364;28;20199;-87
2022/07/19 11:27:19;;;;;;;0.75;0.75;;;33.60;40.20;;;;;;5073209;28;20231;-86
2022/07/19 11:29:56;;;;;;;1.02;0.80;;;33.30;41.10;;;;;;5072933;28;20224;-86
2022/07/19 11:32:24;;;;;;;1.42;0.93;;;33.30;41.50;;;;;;5072841;28;20673;-86
2022/07/19 11:34:56;;;;;;;0.70;0.70;;;33.20;41.40;;;;;;5072962;28;20203;-84
2022/07/19 11:37:27;;;;;;;1.33;1.23;;;33.20;41.00;;;;;;5072501;28;20312;-84
2022/07/19 11:39:57;;;;;;;1.08;0.90;;;33.10;39.60;;;;;;5072474;28;20581;-85
2022/07/19 11:42:32;;;;;;;0.95;0.95;;;33.00;40.20;;;;;;5072835;28;20300;-85
2022/07/19 11:44:58;;;;;;;1.55;0.80;;;32.80;40.10;;;;;;5072791;28;20207;-85
2022/07/19 11:47:27;;;;;;;0.93;0.88;;;32.70;40.30;;;;;;5072756;28;20227;-84
2022/07/19 11:49:53;;;;;;;0.60;0.60;;;32.60;40.00;;;;;;5072626;28;20222;-84
2022/07/19 11:52:20;;;;;;;1.35;0.80;;;32.60;40.70;;;;;;5072696;28;20211;-85
2022/07/19 11:55:00;;;;;;;1.40;0.77;;;32.70;41.00;;;;;;5075993;28;20211;-85
2022/07/19 11:57:27;;;;;;;0.88;0.80;;;32.70;40.80;;;;;;5076281;28;20202;-84
2022/07/19 11:59:54;;;;;;;1.02;0.70;;;32.70;40.90;;;;;;5076100;28;20221;-85
2022/07/19 12:02:21;;;;;;;1.25;0.85;;;32.60;41.00;;;;;;5076223;28;20210;-85
2022/07/19 12:04:49;;;;;;;0.93;0.93;;;32.40;41.30;;;;;;5076211;28;20199;-84
2022/07/19 12:07:18;;;;;;;1.30;0.70;;;32.40;41.20;;;;;;5076130;28;20227;-84
2022/07/19 12:09:44;;;;;;;1.80;0.98;;;32.40;41.70;;;;;;5075933;28;20215;-84
2022/07/19 12:12:16;;;;;;;0.70;0.70;;;32.60;41.10;;;;;;5076761;28;20187;-84
2022/07/19 12:14:44;;;;;;;1.35;0.80;;;32.60;41.20;;;;;;5075722;28;20648;-85
2022/07/19 12:17:14;;;;;;;0.77;0.77;;;32.50;41.40;;;;;;5075649;28;20557;-85
2022/07/19 12:19:42;;;;;;;1.42;0.70;;;32.50;41.60;;;;;;5075783;28;20258;-84
2022/07/19 12:22:29;;;;;;;1.70;0.80;;;32.50;41.40;;;;;;5075614;28;20192;-86
2022/07/19 12:24:56;;;;;;;1.15;1.00;;;32.60;41.30;;;;;;5075603;28;20199;-85
2022/07/19 12:27:27;;;;;;;0.80;0.80;;;32.60;41.00;;;;;;5075859;28;20206;-86
2022/07/19 12:29:55;;;;;;;0.90;0.80;;;32.60;40.90;;;;;;5075500;28;20319;-86
2022/07/19 12:32:29;;;;;;;1.52;1.42;;;32.40;41.20;;;;;;5076027;28;20681;-85
2022/07/19 12:34:58;;;;;;;1.00;0.90;;;32.20;41.80;;;;;;5075418;28;20680;-86
2022/07/19 12:37:27;;;;;;;0.93;0.80;;;32.10;42.20;;;;;;5075417;28;20230;-87
2022/07/19 12:40:07;;;;;;;1.00;0.70;;;32.00;42.40;;;;;;5075780;28;20234;-87
2022/07/19 12:42:42;;;;;;;1.80;1.00;;;32.00;41.90;;;;;;5075829;28;20197;-86
2022/07/19 12:45:10;;;;;;;1.25;0.82;;;32.00;42.20;;;;;;5075165;28;20671;-86
2022/07/19 12:47:36;;;;;;;1.23;1.00;;;32.00;42.30;;;;;;5075382;28;20197;-86
2022/07/19 12:50:04;;;;;;;0.85;0.85;;;32.00;42.40;;;;;;5075332;28;20212;-85
2022/07/19 12:52:31;;;;;;;1.20;1.10;;;32.00;42.10;;;;;;5074933;28;20685;-85
2022/07/19 12:54:58;;;;;;;0.85;0.85;;;32.10;42.70;;;;;;5075325;28;20198;-86
2022/07/19 12:57:27;;;;;;;4.68;1.50;;;32.10;43.10;;;;;;5074822;28;20208;-85